Accueil
METAR-TAF:

METAR-TAF

Aéroports :

Aérodrome de Granges

Granges, Suisse

latitude: 47-10-53N, longitude: 007-24-59E, altitude: 430 m

Observation

Le bulletin a été fait il y a 26 minutes, à 11:50 UTC
Vent 4 kt de est, variant entre nord-est et sud-est
Température 27°C
Humidité 45%
Pression 1017 hPa
Visibilité 10 km ou plus
Quelques nuages à une hauteur de 4500 ft

METAR: LSZG 181150Z 10004KT 050V140 9999 FEW045 27/14 Q1017 NOSIG

Heure: 14:16 (12:16 UTC)

Prévision

Le bulletin a été fait il y a 51 minutes, à 11:25 UTC
Prévision valable du 18 à 12 UTC au 18 à 21 UTC
Vent 6 kt de est/nord-est
Visibilité 10 km ou plus
pas de nuages en-dessous de 1500 mètres et pas de cumulonimbus.
Temporairement
du 18 à 12 UTC au 18 à 18 UTC
Visibilité 10 km ou plus
Quelques nuages à une hauteur de 6000 ft

TAF: LSZG 181125Z 1812/1821 06006KT CAVOK TEMPO 1812/1818 9999 FEW060

Observations et prévisions météorologiques de plus de 4000 aéroports (messages METAR et TAF).

Les stations disponibles sont représentées par des disques jaunes et rouges sur la carte.

Passer la souris dessus pour voir le nom de la station.

Cliquer dessus pour voir les observations et prévisions météorologiques.

Pour changer de carte: cliquez sur les boutons verts avec une croix noire pour zoomer, sur le bouton vert avec un tiret pour effectuer un zoom arrière, ou sur les flèches vertes pour les cartes adjacentes.


METAR-TAF: